sensor_id;sensor_type;location;lat;lon;timestamp;temperature;humidity
47521;DHT22;32291;52.010;4.446;2022-07-04T00:00:25;14.60;99.90
47521;DHT22;32291;52.010;4.446;2022-07-04T00:01:28;14.60;99.90
47521;DHT22;32291;52.010;4.446;2022-07-04T00:02:30;14.60;99.90
47521;DHT22;32291;52.010;4.446;2022-07-04T00:03:31;14.50;99.90
47521;DHT22;32291;52.010;4.446;2022-07-04T00:04:33;14.60;99.90
47521;DHT22;32291;52.010;4.446;2022-07-04T00:05:35;14.50;99.90
47521;DHT22;32291;52.010;4.446;2022-07-04T00:06:38;14.50;99.90
47521;DHT22;32291;52.010;4.446;2022-07-04T00:07:42;14.60;99.90
47521;DHT22;32291;52.010;4.446;2022-07-04T00:08:47;14.50;99.90
47521;DHT22;32291;52.010;4.446;2022-07-04T00:09:49;14.50;99.90
47521;DHT22;32291;52.010;4.446;2022-07-04T00:10:51;14.50;99.90
47521;DHT22;32291;52.010;4.446;2022-07-04T00:11:53;14.50;99.90
47521;DHT22;32291;52.010;4.446;2022-07-04T00:12:55;14.50;99.90
47521;DHT22;32291;52.010;4.446;2022-07-04T00:13:58;14.50;99.90
47521;DHT22;32291;52.010;4.446;2022-07-04T00:15:01;14.40;99.90
47521;DHT22;32291;52.010;4.446;2022-07-04T00:16:05;14.40;99.90
47521;DHT22;32291;52.010;4.446;2022-07-04T00:17:07;14.40;99.90
47521;DHT22;32291;52.010;4.446;2022-07-04T00:18:10;14.40;99.90
47521;DHT22;32291;52.010;4.446;2022-07-04T00:19:12;14.50;99.90
47521;DHT22;32291;52.010;4.446;2022-07-04T00:20:14;14.50;99.90
47521;DHT22;32291;52.010;4.446;2022-07-04T00:21:16;14.40;99.90
47521;DHT22;32291;52.010;4.446;2022-07-04T00:22:17;14.40;99.90
47521;DHT22;32291;52.010;4.446;2022-07-04T00:23:20;14.40;99.90
47521;DHT22;32291;52.010;4.446;2022-07-04T00:24:23;14.40;99.90
47521;DHT22;32291;52.010;4.446;2022-07-04T00:25:24;14.40;99.90
47521;DHT22;32291;52.010;4.446;2022-07-04T00:26:26;14.40;99.90
47521;DHT22;32291;52.010;4.446;2022-07-04T00:27:29;14.40;99.90
47521;DHT22;32291;52.010;4.446;2022-07-04T00:28:31;14.40;99.90
47521;DHT22;32291;52.010;4.446;2022-07-04T00:29:33;14.40;99.90
47521;DHT22;32291;52.010;4.446;2022-07-04T00:30:35;14.40;99.90
47521;DHT22;32291;52.010;4.446;2022-07-04T00:31:38;14.40;99.90
47521;DHT22;32291;52.010;4.446;2022-07-04T00:32:39;14.50;99.90
47521;DHT22;32291;52.010;4.446;2022-07-04T00:33:41;14.40;99.90
47521;DHT22;32291;52.010;4.446;2022-07-04T00:34:43;14.40;99.90
47521;DHT22;32291;52.010;4.446;2022-07-04T00:35:45;14.40;99.90
47521;DHT22;32291;52.010;4.446;2022-07-04T00:36:48;14.40;99.90
47521;DHT22;32291;52.010;4.446;2022-07-04T00:37:49;14.40;99.90
47521;DHT22;32291;52.010;4.446;2022-07-04T00:38:51;14.70;99.90
47521;DHT22;32291;52.010;4.446;2022-07-04T00:39:53;14.40;99.90
47521;DHT22;32291;52.010;4.446;2022-07-04T00:40:56;14.30;99.90
47521;DHT22;32291;52.010;4.446;2022-07-04T00:41:59;14.60;99.90
47521;DHT22;32291;52.010;4.446;2022-07-04T00:43:04;14.40;99.90
47521;DHT22;32291;52.010;4.446;2022-07-04T00:44:09;14.70;99.90
47521;DHT22;32291;52.010;4.446;2022-07-04T00:45:13;14.30;99.90
47521;DHT22;32291;52.010;4.446;2022-07-04T00:46:15;14.40;99.90
47521;DHT22;32291;52.010;4.446;2022-07-04T00:47:17;14.40;99.90
47521;DHT22;32291;52.010;4.446;2022-07-04T00:48:19;14.30;99.90
47521;DHT22;32291;52.010;4.446;2022-07-04T00:49:22;14.40;99.90
47521;DHT22;32291;52.010;4.446;2022-07-04T00:50:25;14.40;99.90
47521;DHT22;32291;52.010;4.446;2022-07-04T00:51:28;13.90;99.90
47521;DHT22;32291;52.010;4.446;2022-07-04T00:52:30;14.40;99.90
47521;DHT22;32291;52.010;4.446;2022-07-04T00:53:32;14.40;99.90
47521;DHT22;32291;52.010;4.446;2022-07-04T00:54:35;14.40;99.90
47521;DHT22;32291;52.010;4.446;2022-07-04T00:55:37;14.40;99.90
47521;DHT22;32291;52.010;4.446;2022-07-04T00:56:43;14.40;99.90
47521;DHT22;32291;52.010;4.446;2022-07-04T00:57:46;14.80;99.90
47521;DHT22;32291;52.010;4.446;2022-07-04T00:58:48;14.40;99.90
47521;DHT22;32291;52.010;4.446;2022-07-04T00:59:51;14.50;99.90
47521;DHT22;32291;52.010;4.446;2022-07-04T01:00:53;14.50;99.90
47521;DHT22;32291;52.010;4.446;2022-07-04T01:01:56;14.40;99.90
47521;DHT22;32291;52.010;4.446;2022-07-04T01:02:58;14.40;99.90
47521;DHT22;32291;52.010;4.446;2022-07-04T01:04:02;14.40;99.90
47521;DHT22;32291;52.010;4.446;2022-07-04T01:05:06;14.40;99.90
47521;DHT22;32291;52.010;4.446;2022-07-04T01:06:09;14.40;99.90
47521;DHT22;32291;52.010;4.446;2022-07-04T01:07:11;14.40;99.90
47521;DHT22;32291;52.010;4.446;2022-07-04T01:08:15;14.50;99.90
47521;DHT22;32291;52.010;4.446;2022-07-04T01:09:18;14.40;99.90
47521;DHT22;32291;52.010;4.446;2022-07-04T01:10:19;14.40;99.90
47521;DHT22;32291;52.010;4.446;2022-07-04T01:11:22;14.40;99.90
47521;DHT22;32291;52.010;4.446;2022-07-04T01:12:30;14.40;99.90
47521;DHT22;32291;52.010;4.446;2022-07-04T01:13:32;14.40;99.90
47521;DHT22;32291;52.010;4.446;2022-07-04T01:14:38;14.60;99.90
47521;DHT22;32291;52.010;4.446;2022-07-04T01:15:40;14.30;99.90
47521;DHT22;32291;52.010;4.446;2022-07-04T01:16:42;14.30;99.90
47521;DHT22;32291;52.010;4.446;2022-07-04T01:17:44;14.30;99.90
47521;DHT22;32291;52.010;4.446;2022-07-04T01:18:45;14.30;99.90
47521;DHT22;32291;52.010;4.446;2022-07-04T01:19:48;14.30;99.90
47521;DHT22;32291;52.010;4.446;2022-07-04T01:20:50;14.30;99.90
47521;DHT22;32291;52.010;4.446;2022-07-04T01:21:52;14.30;99.90
47521;DHT22;32291;52.010;4.446;2022-07-04T01:22:54;14.60;99.90
47521;DHT22;32291;52.010;4.446;2022-07-04T01:23:57;14.40;99.90
47521;DHT22;32291;52.010;4.446;2022-07-04T01:24:59;14.40;99.90
47521;DHT22;32291;52.010;4.446;2022-07-04T01:26:02;14.30;99.90
47521;DHT22;32291;52.010;4.446;2022-07-04T01:27:04;14.40;99.90
47521;DHT22;32291;52.010;4.446;2022-07-04T01:28:06;14.30;99.90
47521;DHT22;32291;52.010;4.446;2022-07-04T01:29:08;14.30;99.90
47521;DHT22;32291;52.010;4.446;2022-07-04T01:30:11;14.30;99.90
47521;DHT22;32291;52.010;4.446;2022-07-04T01:31:13;14.30;99.90
47521;DHT22;32291;52.010;4.446;2022-07-04T01:32:15;14.30;99.90
47521;DHT22;32291;52.010;4.446;2022-07-04T01:33:17;14.60;99.90
47521;DHT22;32291;52.010;4.446;2022-07-04T01:34:20;14.30;99.90
47521;DHT22;32291;52.010;4.446;2022-07-04T01:35:23;14.30;99.90
47521;DHT22;32291;52.010;4.446;2022-07-04T01:36:26;14.30;99.90
47521;DHT22;32291;52.010;4.446;2022-07-04T01:37:28;14.20;99.90
47521;DHT22;32291;52.010;4.446;2022-07-04T01:38:30;14.20;99.90
47521;DHT22;32291;52.010;4.446;2022-07-04T01:39:32;14.20;99.90
47521;DHT22;32291;52.010;4.446;2022-07-04T01:40:33;14.20;99.90
47521;DHT22;32291;52.010;4.446;2022-07-04T01:41:36;14.20;99.90
47521;DHT22;32291;52.010;4.446;2022-07-04T01:42:39;14.20;99.90
47521;DHT22;32291;52.010;4.446;2022-07-04T01:43:42;14.20;99.90
47521;DHT22;32291;52.010;4.446;2022-07-04T01:44:44;14.20;99.90
47521;DHT22;32291;52.010;4.446;2022-07-04T01:45:45;14.20;99.90
47521;DHT22;32291;52.010;4.446;2022-07-04T01:46:48;14.20;99.90
47521;DHT22;32291;52.010;4.446;2022-07-04T01:47:51;14.20;99.90
47521;DHT22;32291;52.010;4.446;2022-07-04T01:48:53;14.20;99.90
47521;DHT22;32291;52.010;4.446;2022-07-04T01:49:55;14.20;99.90
47521;DHT22;32291;52.010;4.446;2022-07-04T01:50:57;14.20;99.90
47521;DHT22;32291;52.010;4.446;2022-07-04T01:51:58;14.20;99.90
47521;DHT22;32291;52.010;4.446;2022-07-04T01:53:01;14.20;99.90
47521;DHT22;32291;52.010;4.446;2022-07-04T01:54:04;14.20;99.90
47521;DHT22;32291;52.010;4.446;2022-07-04T01:55:10;14.20;99.90
47521;DHT22;32291;52.010;4.446;2022-07-04T01:56:14;14.20;99.90
47521;DHT22;32291;52.010;4.446;2022-07-04T01:57:16;14.10;99.90
47521;DHT22;32291;52.010;4.446;2022-07-04T01:58:18;14.10;99.90
47521;DHT22;32291;52.010;4.446;2022-07-04T01:59:20;14.20;99.90
47521;DHT22;32291;52.010;4.446;2022-07-04T02:00:42;14.20;99.90
47521;DHT22;32291;52.010;4.446;2022-07-04T02:02:03;14.20;99.90
47521;DHT22;32291;52.010;4.446;2022-07-04T02:03:05;14.20;99.90
47521;DHT22;32291;52.010;4.446;2022-07-04T02:04:07;14.20;99.90
47521;DHT22;32291;52.010;4.446;2022-07-04T02:05:09;14.20;99.90
47521;DHT22;32291;52.010;4.446;2022-07-04T02:06:11;14.20;99.90
47521;DHT22;32291;52.010;4.446;2022-07-04T02:07:13;14.20;99.90
47521;DHT22;32291;52.010;4.446;2022-07-04T02:08:17;14.20;99.90
47521;DHT22;32291;52.010;4.446;2022-07-04T02:09:19;14.20;99.90
47521;DHT22;32291;52.010;4.446;2022-07-04T02:10:21;14.20;99.90
47521;DHT22;32291;52.010;4.446;2022-07-04T02:11:24;14.10;99.90
47521;DHT22;32291;52.010;4.446;2022-07-04T02:12:26;14.10;99.90
47521;DHT22;32291;52.010;4.446;2022-07-04T02:13:46;14.20;99.90
47521;DHT22;32291;52.010;4.446;2022-07-04T02:14:48;14.10;99.90
47521;DHT22;32291;52.010;4.446;2022-07-04T02:15:50;14.10;99.90
47521;DHT22;32291;52.010;4.446;2022-07-04T02:16:52;14.10;99.90
47521;DHT22;32291;52.010;4.446;2022-07-04T02:17:55;14.10;99.90
47521;DHT22;32291;52.010;4.446;2022-07-04T02:18:58;14.10;99.90
47521;DHT22;32291;52.010;4.446;2022-07-04T02:20:03;14.10;99.90
47521;DHT22;32291;52.010;4.446;2022-07-04T02:21:07;14.10;99.90
47521;DHT22;32291;52.010;4.446;2022-07-04T02:22:09;14.10;99.90
47521;DHT22;32291;52.010;4.446;2022-07-04T02:23:11;14.10;99.90
47521;DHT22;32291;52.010;4.446;2022-07-04T02:24:13;14.10;99.90
47521;DHT22;32291;52.010;4.446;2022-07-04T02:25:15;14.10;99.90
47521;DHT22;32291;52.010;4.446;2022-07-04T02:26:18;14.10;99.90
47521;DHT22;32291;52.010;4.446;2022-07-04T02:27:20;14.10;99.90
47521;DHT22;32291;52.010;4.446;2022-07-04T02:28:22;14.10;99.90
47521;DHT22;32291;52.010;4.446;2022-07-04T02:29:24;14.10;99.90
47521;DHT22;32291;52.010;4.446;2022-07-04T02:30:26;14.10;99.90
47521;DHT22;32291;52.010;4.446;2022-07-04T02:31:28;14.10;99.90
47521;DHT22;32291;52.010;4.446;2022-07-04T02:32:30;14.10;99.90
47521;DHT22;32291;52.010;4.446;2022-07-04T02:33:32;14.20;99.90
47521;DHT22;32291;52.010;4.446;2022-07-04T02:34:34;14.10;99.90
47521;DHT22;32291;52.010;4.446;2022-07-04T02:35:36;14.60;99.90
47521;DHT22;32291;52.010;4.446;2022-07-04T02:36:38;14.10;99.90
47521;DHT22;32291;52.010;4.446;2022-07-04T02:37:40;14.10;99.90
47521;DHT22;32291;52.010;4.446;2022-07-04T02:38:42;14.10;99.90
47521;DHT22;32291;52.010;4.446;2022-07-04T02:39:44;14.10;99.90
47521;DHT22;32291;52.010;4.446;2022-07-04T02:40:47;14.10;99.90
47521;DHT22;32291;52.010;4.446;2022-07-04T02:41:49;13.90;99.90
47521;DHT22;32291;52.010;4.446;2022-07-04T02:42:51;14.10;99.90
47521;DHT22;32291;52.010;4.446;2022-07-04T02:43:52;14.10;99.90
47521;DHT22;32291;52.010;4.446;2022-07-04T02:44:54;14.20;99.90
47521;DHT22;32291;52.010;4.446;2022-07-04T02:45:57;14.10;99.90
47521;DHT22;32291;52.010;4.446;2022-07-04T02:46:58;14.10;99.90
47521;DHT22;32291;52.010;4.446;2022-07-04T02:48:01;14.10;99.90
47521;DHT22;32291;52.010;4.446;2022-07-04T02:49:04;14.00;99.90
47521;DHT22;32291;52.010;4.446;2022-07-04T02:50:06;14.20;99.90
47521;DHT22;32291;52.010;4.446;2022-07-04T02:51:09;14.00;99.90
47521;DHT22;32291;52.010;4.446;2022-07-04T02:52:11;14.10;99.90
47521;DHT22;32291;52.010;4.446;2022-07-04T02:53:13;14.10;99.90
47521;DHT22;32291;52.010;4.446;2022-07-04T02:54:15;14.00;99.90
47521;DHT22;32291;52.010;4.446;2022-07-04T02:55:17;14.10;99.90
47521;DHT22;32291;52.010;4.446;2022-07-04T02:56:20;14.10;99.90
47521;DHT22;32291;52.010;4.446;2022-07-04T02:57:22;14.10;99.90
47521;DHT22;32291;52.010;4.446;2022-07-04T02:58:24;14.10;99.90
47521;DHT22;32291;52.010;4.446;2022-07-04T02:59:26;14.10;99.90
47521;DHT22;32291;52.010;4.446;2022-07-04T03:00:28;14.10;99.90
47521;DHT22;32291;52.010;4.446;2022-07-04T03:01:30;14.10;99.90
47521;DHT22;32291;52.010;4.446;2022-07-04T03:02:32;14.10;99.90
47521;DHT22;32291;52.010;4.446;2022-07-04T03:03:34;14.10;99.90
47521;DHT22;32291;52.010;4.446;2022-07-04T03:04:36;14.10;99.90
47521;DHT22;32291;52.010;4.446;2022-07-04T03:05:41;14.30;99.90
47521;DHT22;32291;52.010;4.446;2022-07-04T03:06:43;14.20;99.90
47521;DHT22;32291;52.010;4.446;2022-07-04T03:07:45;14.50;99.90
47521;DHT22;32291;52.010;4.446;2022-07-04T03:08:47;14.30;99.90
47521;DHT22;32291;52.010;4.446;2022-07-04T03:09:49;14.10;99.90
47521;DHT22;32291;52.010;4.446;2022-07-04T03:10:51;14.10;99.90
47521;DHT22;32291;52.010;4.446;2022-07-04T03:11:53;14.20;99.90
47521;DHT22;32291;52.010;4.446;2022-07-04T03:12:56;14.10;99.90
47521;DHT22;32291;52.010;4.446;2022-07-04T03:13:58;14.10;99.90
47521;DHT22;32291;52.010;4.446;2022-07-04T03:15:00;14.10;99.90
47521;DHT22;32291;52.010;4.446;2022-07-04T03:16:03;14.10;99.90
47521;DHT22;32291;52.010;4.446;2022-07-04T03:17:05;14.10;99.90
47521;DHT22;32291;52.010;4.446;2022-07-04T03:18:07;14.10;99.90
47521;DHT22;32291;52.010;4.446;2022-07-04T03:19:09;14.10;99.90
47521;DHT22;32291;52.010;4.446;2022-07-04T03:20:11;14.10;99.90
47521;DHT22;32291;52.010;4.446;2022-07-04T03:21:13;14.10;99.90
47521;DHT22;32291;52.010;4.446;2022-07-04T03:22:15;14.10;99.90
47521;DHT22;32291;52.010;4.446;2022-07-04T03:23:17;14.10;99.90
47521;DHT22;32291;52.010;4.446;2022-07-04T03:24:19;14.10;99.90
47521;DHT22;32291;52.010;4.446;2022-07-04T03:25:21;14.10;99.90
47521;DHT22;32291;52.010;4.446;2022-07-04T03:26:28;14.10;99.90
47521;DHT22;32291;52.010;4.446;2022-07-04T03:27:33;14.10;99.90
47521;DHT22;32291;52.010;4.446;2022-07-04T03:28:35;14.10;99.90
47521;DHT22;32291;52.010;4.446;2022-07-04T03:29:37;14.10;99.90
47521;DHT22;32291;52.010;4.446;2022-07-04T03:30:39;14.10;99.90
47521;DHT22;32291;52.010;4.446;2022-07-04T03:31:41;14.50;99.90
47521;DHT22;32291;52.010;4.446;2022-07-04T03:32:44;14.10;99.90
47521;DHT22;32291;52.010;4.446;2022-07-04T03:33:46;14.10;99.90
47521;DHT22;32291;52.010;4.446;2022-07-04T03:34:48;14.10;99.90
47521;DHT22;32291;52.010;4.446;2022-07-04T03:35:50;14.10;99.90
47521;DHT22;32291;52.010;4.446;2022-07-04T03:36:52;14.10;99.90
47521;DHT22;32291;52.010;4.446;2022-07-04T03:37:54;14.10;99.90
47521;DHT22;32291;52.010;4.446;2022-07-04T03:38:57;14.10;99.90
47521;DHT22;32291;52.010;4.446;2022-07-04T03:39:59;14.10;99.90
47521;DHT22;32291;52.010;4.446;2022-07-04T03:41:02;14.10;99.90
47521;DHT22;32291;52.010;4.446;2022-07-04T03:42:04;14.10;99.90
47521;DHT22;32291;52.010;4.446;2022-07-04T03:43:06;14.10;99.90
47521;DHT22;32291;52.010;4.446;2022-07-04T03:44:08;14.20;99.90
47521;DHT22;32291;52.010;4.446;2022-07-04T03:45:11;14.10;99.90
47521;DHT22;32291;52.010;4.446;2022-07-04T03:46:13;14.10;99.90
47521;DHT22;32291;52.010;4.446;2022-07-04T03:47:15;14.20;99.90
47521;DHT22;32291;52.010;4.446;2022-07-04T03:48:17;14.20;99.90
47521;DHT22;32291;52.010;4.446;2022-07-04T03:49:19;14.20;99.90
47521;DHT22;32291;52.010;4.446;2022-07-04T03:50:22;14.20;99.90
47521;DHT22;32291;52.010;4.446;2022-07-04T03:51:24;14.20;99.90
47521;DHT22;32291;52.010;4.446;2022-07-04T03:52:26;14.20;99.90
47521;DHT22;32291;52.010;4.446;2022-07-04T03:53:29;14.20;99.90
47521;DHT22;32291;52.010;4.446;2022-07-04T03:54:31;14.60;99.90
47521;DHT22;32291;52.010;4.446;2022-07-04T03:55:33;14.20;99.90
47521;DHT22;32291;52.010;4.446;2022-07-04T03:56:35;14.20;99.90
47521;DHT22;32291;52.010;4.446;2022-07-04T03:57:37;14.20;99.90
47521;DHT22;32291;52.010;4.446;2022-07-04T03:58:39;14.70;99.90
47521;DHT22;32291;52.010;4.446;2022-07-04T03:59:41;14.30;99.90
47521;DHT22;32291;52.010;4.446;2022-07-04T04:00:43;14.30;99.90
47521;DHT22;32291;52.010;4.446;2022-07-04T04:01:45;14.30;99.90
47521;DHT22;32291;52.010;4.446;2022-07-04T04:02:47;14.40;99.90
47521;DHT22;32291;52.010;4.446;2022-07-04T04:03:49;14.30;99.90
47521;DHT22;32291;52.010;4.446;2022-07-04T04:05:10;14.30;99.90
47521;DHT22;32291;52.010;4.446;2022-07-04T04:06:28;14.30;99.90
47521;DHT22;32291;52.010;4.446;2022-07-04T04:07:31;14.40;99.90
47521;DHT22;32291;52.010;4.446;2022-07-04T04:08:33;14.30;99.90
47521;DHT22;32291;52.010;4.446;2022-07-04T04:09:36;14.30;99.90
47521;DHT22;32291;52.010;4.446;2022-07-04T04:10:38;14.30;99.90
47521;DHT22;32291;52.010;4.446;2022-07-04T04:11:40;14.30;99.90
47521;DHT22;32291;52.010;4.446;2022-07-04T04:12:42;14.40;99.90
47521;DHT22;32291;52.010;4.446;2022-07-04T04:13:44;14.30;99.90
47521;DHT22;32291;52.010;4.446;2022-07-04T04:14:46;14.40;99.90
47521;DHT22;32291;52.010;4.446;2022-07-04T04:15:48;14.40;99.90
47521;DHT22;32291;52.010;4.446;2022-07-04T04:16:50;14.40;99.90
47521;DHT22;32291;52.010;4.446;2022-07-04T04:17:52;14.40;99.90
47521;DHT22;32291;52.010;4.446;2022-07-04T04:18:54;14.40;99.90
47521;DHT22;32291;52.010;4.446;2022-07-04T04:19:55;14.40;99.90
47521;DHT22;32291;52.010;4.446;2022-07-04T04:20:58;14.40;99.90
47521;DHT22;32291;52.010;4.446;2022-07-04T04:22:00;14.40;99.90
47521;DHT22;32291;52.010;4.446;2022-07-04T04:23:02;14.40;99.90
47521;DHT22;32291;52.010;4.446;2022-07-04T04:24:04;14.40;99.90
47521;DHT22;32291;52.010;4.446;2022-07-04T04:25:07;14.40;99.90
47521;DHT22;32291;52.010;4.446;2022-07-04T04:26:10;14.40;99.90
47521;DHT22;32291;52.010;4.446;2022-07-04T04:27:12;14.40;99.90
47521;DHT22;32291;52.010;4.446;2022-07-04T04:28:14;14.90;99.90
47521;DHT22;32291;52.010;4.446;2022-07-04T04:29:16;14.80;99.90
47521;DHT22;32291;52.010;4.446;2022-07-04T04:30:18;14.80;99.90
47521;DHT22;32291;52.010;4.446;2022-07-04T04:31:20;14.50;99.90
47521;DHT22;32291;52.010;4.446;2022-07-04T04:32:23;14.50;99.90
47521;DHT22;32291;52.010;4.446;2022-07-04T04:33:24;14.50;99.90
47521;DHT22;32291;52.010;4.446;2022-07-04T04:34:27;14.50;99.90
47521;DHT22;32291;52.010;4.446;2022-07-04T04:35:28;14.50;99.90
47521;DHT22;32291;52.010;4.446;2022-07-04T04:36:30;14.60;99.90
47521;DHT22;32291;52.010;4.446;2022-07-04T04:37:33;14.60;99.90
47521;DHT22;32291;52.010;4.446;2022-07-04T04:38:35;14.60;99.90
47521;DHT22;32291;52.010;4.446;2022-07-04T04:39:37;14.60;99.90
47521;DHT22;32291;52.010;4.446;2022-07-04T04:40:40;14.60;99.90
47521;DHT22;32291;52.010;4.446;2022-07-04T04:41:42;14.60;99.90
47521;DHT22;32291;52.010;4.446;2022-07-04T04:42:44;14.60;99.90
47521;DHT22;32291;52.010;4.446;2022-07-04T04:43:47;14.70;99.90
47521;DHT22;32291;52.010;4.446;2022-07-04T04:44:50;14.70;99.90
47521;DHT22;32291;52.010;4.446;2022-07-04T04:45:53;14.70;99.90
47521;DHT22;32291;52.010;4.446;2022-07-04T04:46:55;14.70;99.90
47521;DHT22;32291;52.010;4.446;2022-07-04T04:47:57;14.80;99.90
47521;DHT22;32291;52.010;4.446;2022-07-04T04:48:59;14.90;99.90
47521;DHT22;32291;52.010;4.446;2022-07-04T04:50:01;14.80;99.90
47521;DHT22;32291;52.010;4.446;2022-07-04T04:51:04;14.80;99.90
47521;DHT22;32291;52.010;4.446;2022-07-04T04:52:06;15.40;99.90
47521;DHT22;32291;52.010;4.446;2022-07-04T04:53:08;14.90;99.90
47521;DHT22;32291;52.010;4.446;2022-07-04T04:54:11;15.00;99.90
47521;DHT22;32291;52.010;4.446;2022-07-04T04:55:13;15.00;99.90
47521;DHT22;32291;52.010;4.446;2022-07-04T04:56:15;14.90;99.90
47521;DHT22;32291;52.010;4.446;2022-07-04T04:57:17;15.00;99.90
47521;DHT22;32291;52.010;4.446;2022-07-04T04:58:20;15.00;99.90
47521;DHT22;32291;52.010;4.446;2022-07-04T04:59:23;15.50;99.90
47521;DHT22;32291;52.010;4.446;2022-07-04T05:00:25;15.10;99.90
47521;DHT22;32291;52.010;4.446;2022-07-04T05:01:28;15.40;99.90
47521;DHT22;32291;52.010;4.446;2022-07-04T05:02:30;15.10;99.90
47521;DHT22;32291;52.010;4.446;2022-07-04T05:03:32;15.20;99.90
47521;DHT22;32291;52.010;4.446;2022-07-04T05:04:34;15.50;99.90
47521;DHT22;32291;52.010;4.446;2022-07-04T05:05:36;15.10;99.90
47521;DHT22;32291;52.010;4.446;2022-07-04T05:06:38;15.30;99.90
47521;DHT22;32291;52.010;4.446;2022-07-04T05:07:40;15.30;99.90
47521;DHT22;32291;52.010;4.446;2022-07-04T05:08:42;15.40;99.90
47521;DHT22;32291;52.010;4.446;2022-07-04T05:09:44;15.40;99.90
47521;DHT22;32291;52.010;4.446;2022-07-04T05:10:47;15.40;99.90
47521;DHT22;32291;52.010;4.446;2022-07-04T05:11:48;15.50;99.90
47521;DHT22;32291;52.010;4.446;2022-07-04T05:12:50;15.50;99.90
47521;DHT22;32291;52.010;4.446;2022-07-04T05:13:52;15.50;99.90
47521;DHT22;32291;52.010;4.446;2022-07-04T05:14:55;15.70;99.90
47521;DHT22;32291;52.010;4.446;2022-07-04T05:15:57;15.60;99.90
47521;DHT22;32291;52.010;4.446;2022-07-04T05:17:00;15.60;99.90
47521;DHT22;32291;52.010;4.446;2022-07-04T05:18:02;15.70;99.90
47521;DHT22;32291;52.010;4.446;2022-07-04T05:19:04;15.70;99.90
47521;DHT22;32291;52.010;4.446;2022-07-04T05:20:06;15.70;99.90
47521;DHT22;32291;52.010;4.446;2022-07-04T05:21:09;15.70;99.90
47521;DHT22;32291;52.010;4.446;2022-07-04T05:22:11;16.00;99.90
47521;DHT22;32291;52.010;4.446;2022-07-04T05:23:13;15.80;99.90
47521;DHT22;32291;52.010;4.446;2022-07-04T05:24:15;15.80;99.90
47521;DHT22;32291;52.010;4.446;2022-07-04T05:25:17;15.80;99.90
47521;DHT22;32291;52.010;4.446;2022-07-04T05:26:20;15.90;99.90
47521;DHT22;32291;52.010;4.446;2022-07-04T05:27:23;15.90;99.90
47521;DHT22;32291;52.010;4.446;2022-07-04T05:28:25;16.00;99.90
47521;DHT22;32291;52.010;4.446;2022-07-04T05:29:27;15.90;99.90
47521;DHT22;32291;52.010;4.446;2022-07-04T05:30:29;15.90;99.90
47521;DHT22;32291;52.010;4.446;2022-07-04T05:31:31;16.00;99.90
47521;DHT22;32291;52.010;4.446;2022-07-04T05:32:33;16.00;99.90
47521;DHT22;32291;52.010;4.446;2022-07-04T05:33:35;16.00;99.90
47521;DHT22;32291;52.010;4.446;2022-07-04T05:34:37;16.10;99.90
47521;DHT22;32291;52.010;4.446;2022-07-04T05:35:40;16.10;99.90
47521;DHT22;32291;52.010;4.446;2022-07-04T05:36:41;16.10;99.90
47521;DHT22;32291;52.010;4.446;2022-07-04T05:37:43;16.10;99.90
47521;DHT22;32291;52.010;4.446;2022-07-04T05:38:45;16.10;99.90
47521;DHT22;32291;52.010;4.446;2022-07-04T05:39:49;16.10;99.90
47521;DHT22;32291;52.010;4.446;2022-07-04T05:40:51;16.10;99.90
47521;DHT22;32291;52.010;4.446;2022-07-04T05:41:53;16.10;99.90
47521;DHT22;32291;52.010;4.446;2022-07-04T05:42:55;16.60;99.90
47521;DHT22;32291;52.010;4.446;2022-07-04T05:43:57;16.10;99.90
47521;DHT22;32291;52.010;4.446;2022-07-04T05:44:59;16.10;99.90
47521;DHT22;32291;52.010;4.446;2022-07-04T05:46:01;16.20;99.90
47521;DHT22;32291;52.010;4.446;2022-07-04T05:47:05;16.10;99.90
47521;DHT22;32291;52.010;4.446;2022-07-04T05:48:07;16.20;99.90
47521;DHT22;32291;52.010;4.446;2022-07-04T05:49:09;16.20;99.90
47521;DHT22;32291;52.010;4.446;2022-07-04T05:50:11;16.20;99.90
47521;DHT22;32291;52.010;4.446;2022-07-04T05:51:13;16.20;99.90
47521;DHT22;32291;52.010;4.446;2022-07-04T05:52:16;16.20;99.90
47521;DHT22;32291;52.010;4.446;2022-07-04T05:53:17;16.20;99.90
47521;DHT22;32291;52.010;4.446;2022-07-04T05:54:19;16.20;99.90
47521;DHT22;32291;52.010;4.446;2022-07-04T05:55:21;16.20;99.90
47521;DHT22;32291;52.010;4.446;2022-07-04T05:56:23;16.20;99.90
47521;DHT22;32291;52.010;4.446;2022-07-04T05:57:25;16.20;99.90
47521;DHT22;32291;52.010;4.446;2022-07-04T05:58:27;16.30;99.90
47521;DHT22;32291;52.010;4.446;2022-07-04T05:59:29;16.30;99.90
47521;DHT22;32291;52.010;4.446;2022-07-04T06:00:31;16.30;99.90
47521;DHT22;32291;52.010;4.446;2022-07-04T06:01:33;16.30;99.90
47521;DHT22;32291;52.010;4.446;2022-07-04T06:02:35;16.30;99.90
47521;DHT22;32291;52.010;4.446;2022-07-04T06:03:38;16.30;99.90
47521;DHT22;32291;52.010;4.446;2022-07-04T06:04:40;16.40;99.90
47521;DHT22;32291;52.010;4.446;2022-07-04T06:05:41;16.40;99.90
47521;DHT22;32291;52.010;4.446;2022-07-04T06:06:43;16.40;99.90
47521;DHT22;32291;52.010;4.446;2022-07-04T06:07:45;16.50;99.90
47521;DHT22;32291;52.010;4.446;2022-07-04T06:08:49;16.50;99.90
47521;DHT22;32291;52.010;4.446;2022-07-04T06:09:52;16.70;99.90
47521;DHT22;32291;52.010;4.446;2022-07-04T06:10:54;16.50;99.90
47521;DHT22;32291;52.010;4.446;2022-07-04T06:11:55;16.50;99.90
47521;DHT22;32291;52.010;4.446;2022-07-04T06:12:57;16.50;99.90
47521;DHT22;32291;52.010;4.446;2022-07-04T06:13:59;16.60;99.90
47521;DHT22;32291;52.010;4.446;2022-07-04T06:15:02;16.60;99.90
47521;DHT22;32291;52.010;4.446;2022-07-04T06:16:04;16.60;99.90
47521;DHT22;32291;52.010;4.446;2022-07-04T06:17:06;16.50;99.90
47521;DHT22;32291;52.010;4.446;2022-07-04T06:18:08;16.60;99.90
47521;DHT22;32291;52.010;4.446;2022-07-04T06:19:10;16.60;99.90
47521;DHT22;32291;52.010;4.446;2022-07-04T06:20:13;16.60;99.90
47521;DHT22;32291;52.010;4.446;2022-07-04T06:21:17;16.60;99.90
47521;DHT22;32291;52.010;4.446;2022-07-04T06:22:19;16.70;99.90
47521;DHT22;32291;52.010;4.446;2022-07-04T06:23:20;16.70;99.90
47521;DHT22;32291;52.010;4.446;2022-07-04T06:24:22;16.70;99.90
47521;DHT22;32291;52.010;4.446;2022-07-04T06:25:24;16.60;99.90
47521;DHT22;32291;52.010;4.446;2022-07-04T06:26:26;16.70;99.90
47521;DHT22;32291;52.010;4.446;2022-07-04T06:27:28;16.70;99.90
47521;DHT22;32291;52.010;4.446;2022-07-04T06:28:30;16.70;99.90
47521;DHT22;32291;52.010;4.446;2022-07-04T06:29:32;16.70;99.90
47521;DHT22;32291;52.010;4.446;2022-07-04T06:30:34;16.70;99.90
47521;DHT22;32291;52.010;4.446;2022-07-04T06:31:36;16.70;99.90
47521;DHT22;32291;52.010;4.446;2022-07-04T06:32:49;16.70;99.90
47521;DHT22;32291;52.010;4.446;2022-07-04T06:33:54;16.70;99.90
47521;DHT22;32291;52.010;4.446;2022-07-04T06:35:31;16.80;99.90